Time;durP1;ratioP1;P1;durP2;ratioP2;P2;SDS_P1;SDS_P2;PMS_P1;PMS_P2;Temp;Humidity;BMP_temperature;BMP_pressure;BME280_temperature;BME280_humidity;BME280_pressure;Samples;Min_cycle;Max_cycle;Signal;HPM_P1;HPM_P2
2023/03/10 00:01:22;;;;;;;24.95;15.35;;;;;;;2.11;100.00;98697.59;5015280;28;20034;-54
2023/03/10 00:03:48;;;;;;;27.45;15.88;;;;;;;2.13;100.00;98680.25;5014160;28;20422;-48
2023/03/10 00:06:15;;;;;;;24.48;15.30;;;;;;;2.15;100.00;98702.66;5014136;28;20033;-53
2023/03/10 00:08:41;;;;;;;24.83;15.20;;;;;;;2.16;100.00;98713.88;5014220;28;20038;-56
2023/03/10 00:11:07;;;;;;;27.90;16.27;;;;;;;1.90;100.00;98660.22;5015182;28;20046;-56
2023/03/10 00:13:32;;;;;;;29.90;16.45;;;;;;;2.08;100.00;98688.16;5015223;28;20380;-58
2023/03/10 00:15:57;;;;;;;25.23;16.08;;;;;;;2.13;100.00;98701.00;5015582;28;20541;-51
2023/03/10 00:18:23;;;;;;;27.25;15.68;;;;;;;2.12;100.00;98694.97;5015272;28;20045;-53
2023/03/10 00:20:54;;;;;;;26.92;16.27;;;;;;;1.68;100.00;98622.91;5014057;28;20059;-53
2023/03/10 00:23:20;;;;;;;26.95;16.00;;;;;;;1.86;100.00;98650.00;5015144;28;20062;-49
2023/03/10 00:25:57;;;;;;;26.13;15.57;;;;;;;1.61;100.00;98609.25;5013521;28;20050;-57
2023/03/10 00:28:24;;;;;;;23.90;15.77;;;;;;;2.11;100.00;98705.38;5030288;28;20436;-56
2023/03/10 00:30:59;;;;;;;25.88;15.00;;;;;;;1.69;100.00;98616.81;5015133;28;20064;-50
2023/03/10 00:33:25;;;;;;;26.92;16.23;;;;;;;2.09;100.00;98669.09;5029718;28;20038;-50
2023/03/10 00:36:05;;;;;;;26.85;16.60;;;;;;;1.69;100.00;98604.69;5014665;28;20065;-53
2023/03/10 00:38:30;;;;;;;31.13;16.58;;;;;;;2.12;100.00;98673.34;5014743;28;20115;-51
2023/03/10 00:40:57;;;;;;;26.73;17.15;;;;;;;1.68;100.00;98594.38;5013346;28;20038;-53
2023/03/10 00:43:23;;;;;;;27.23;15.82;;;;;;;1.78;100.00;98618.28;5014759;28;20026;-55
2023/03/10 00:45:48;;;;;;;31.58;16.80;;;;;;;2.18;100.00;98675.75;5014999;28;20040;-51
2023/03/10 00:48:13;;;;;;;29.23;16.50;;;;;;;2.17;100.00;98667.09;5014799;28;20034;-51
2023/03/10 00:50:39;;;;;;;29.15;15.95;;;;;;;2.17;100.00;98668.84;5014626;28;20044;-53
2023/03/10 00:53:04;;;;;;;26.48;16.35;;;;;;;2.15;100.00;98655.94;5014398;28;20061;-51
2023/03/10 00:55:29;;;;;;;31.95;17.38;;;;;;;2.19;100.00;98672.22;5014750;28;20045;-52
2023/03/10 00:57:55;;;;;;;29.13;16.48;;;;;;;2.16;100.00;98678.38;5014595;28;20137;-54
2023/03/10 01:00:22;;;;;;;29.67;17.25;;;;;;;1.91;100.00;98622.16;5013053;28;20069;-49
2023/03/10 01:02:47;;;;;;;29.55;16.83;;;;;;;2.18;100.00;98662.75;5013193;28;20033;-53
2023/03/10 01:05:13;;;;;;;28.55;16.38;;;;;;;2.15;100.00;98655.06;5014037;28;20026;-54
2023/03/10 01:07:38;;;;;;;32.45;16.35;;;;;;;2.08;100.00;98636.25;5013826;28;20040;-52
2023/03/10 01:10:04;;;;;;;27.60;16.73;;;;;;;2.12;100.00;98647.41;5013830;28;20117;-50
2023/03/10 01:12:30;;;;;;;27.88;16.63;;;;;;;2.12;100.00;98648.25;5013057;28;20038;-52
2023/03/10 01:14:55;;;;;;;25.30;16.15;;;;;;;2.12;100.00;98650.84;5012875;28;20042;-53
2023/03/10 01:17:20;;;;;;;30.05;15.75;;;;;;;1.97;100.00;98617.63;5014031;28;20037;-53
2023/03/10 01:19:45;;;;;;;32.03;17.23;;;;;;;2.10;100.00;98639.66;5014181;28;20041;-52
2023/03/10 01:22:11;;;;;;;31.23;17.27;;;;;;;1.67;100.00;98567.59;5013955;28;20500;-49
2023/03/10 01:24:36;;;;;;;31.17;17.75;;;;;;;1.89;100.00;98596.28;5013971;28;20143;-50
2023/03/10 01:27:01;;;;;;;27.25;16.92;;;;;;;2.04;100.00;98624.28;5013412;28;20127;-48
2023/03/10 01:29:27;;;;;;;31.00;17.33;;;;;;;2.12;100.00;98632.69;5014032;28;20049;-52
2023/03/10 01:31:52;;;;;;;28.52;16.63;;;;;;;1.67;100.00;98572.78;5013722;28;20033;-50
2023/03/10 01:34:17;;;;;;;28.48;16.75;;;;;;;1.67;100.00;98566.72;5013816;28;20042;-54
2023/03/10 01:36:43;;;;;;;30.17;17.90;;;;;;;2.12;100.00;98635.28;5013671;28;20038;-49
2023/03/10 01:39:08;;;;;;;30.33;17.20;;;;;;;1.67;100.00;98552.03;5028370;28;20033;-52
2023/03/10 01:41:37;;;;;;;27.67;16.80;;;;;;;2.11;100.00;98627.53;5013464;28;20041;-53
2023/03/10 01:44:03;;;;;;;28.17;17.33;;;;;;;2.10;100.00;98615.47;5013114;28;20033;-53
2023/03/10 01:46:38;;;;;;;30.13;16.75;;;;;;;1.95;100.00;98590.88;5013875;28;20029;-53
2023/03/10 01:49:31;;;;;;;25.05;15.85;;;;;;;2.14;100.00;98615.28;5013497;28;20041;-54
2023/03/10 01:52:04;;;;;;;30.23;16.83;;;;;;;2.15;100.00;98609.22;5012593;28;20465;-57
2023/03/10 01:54:49;;;;;;;31.45;17.00;;;;;;;2.10;100.00;98618.88;5013566;28;20034;-51
2023/03/10 01:57:15;;;;;;;30.10;16.90;;;;;;;2.10;100.00;98611.09;4995712;28;20056;-52
2023/03/10 01:59:41;;;;;;;33.15;17.42;;;;;;;2.08;100.00;98607.72;4994743;28;20370;-54
2023/03/10 02:02:08;;;;;;;31.05;16.90;;;;;;;2.08;100.00;98612.06;5012246;28;20113;-56
2023/03/10 02:04:43;;;;;;;24.58;15.20;;;;;;;2.06;100.00;98614.72;5012404;28;20109;-55
2023/03/10 02:07:09;;;;;;;27.60;16.10;;;;;;;2.07;100.00;98594.81;5012222;28;20040;-54
2023/03/10 02:09:38;;;;;;;31.48;17.02;;;;;;;2.01;100.00;98582.03;5012072;28;20476;-51
2023/03/10 02:12:05;;;;;;;31.38;18.08;;;;;;;2.07;100.00;98581.84;5011868;28;20037;-53
2023/03/10 02:14:31;;;;;;;28.48;16.70;;;;;;;2.04;100.00;98572.38;5013833;28;20397;-52
2023/03/10 02:16:57;;;;;;;31.95;18.00;;;;;;;1.95;100.00;98554.56;5012078;28;20037;-54
2023/03/10 02:19:56;;;;;;;27.77;16.42;;;;;;;2.10;100.00;98581.72;4995783;28;20512;-54
2023/03/10 02:22:21;;;;;;;26.08;16.70;;;;;;;2.03;100.00;98572.44;5013261;28;20209;-56
2023/03/10 02:24:51;;;;;;;29.02;16.60;;;;;;;1.83;100.00;98533.38;5011739;28;20131;-52
2023/03/10 02:27:25;;;;;;;30.70;16.63;;;;;;;2.09;100.00;98572.25;5013386;28;20339;-56
2023/03/10 02:30:02;;;;;;;28.33;16.95;;;;;;;2.11;100.00;98580.81;5013295;28;20044;-52
2023/03/10 02:32:30;;;;;;;30.10;17.13;;;;;;;1.78;100.00;98530.09;5011952;28;20481;-50
2023/03/10 02:34:56;;;;;;;27.15;16.00;;;;;;;2.00;100.00;98550.06;5011927;28;20026;-53
2023/03/10 02:37:24;;;;;;;28.70;15.90;;;;;;;2.11;100.00;98573.03;5011525;28;20096;-50
2023/03/10 02:39:50;;;;;;;30.95;16.90;;;;;;;2.10;100.00;98560.97;5013146;28;20038;-56
2023/03/10 02:42:16;;;;;;;31.48;17.17;;;;;;;2.09;100.00;98567.91;5009962;28;20401;-48
2023/03/10 02:44:42;;;;;;;28.40;16.38;;;;;;;2.10;100.00;98577.34;5011871;28;20041;-55
2023/03/10 02:47:07;;;;;;;29.88;16.88;;;;;;;1.58;100.00;98481.47;5013005;28;20033;-50
2023/03/10 02:49:34;;;;;;;27.98;15.60;;;;;;;1.66;100.00;98497.63;5013291;28;20125;-50
2023/03/10 02:52:02;;;;;;;29.05;15.95;;;;;;;1.97;100.00;98537.19;5012705;28;20030;-56
2023/03/10 02:54:27;;;;;;;29.23;16.00;;;;;;;2.07;100.00;98554.09;5011333;28;20366;-51
2023/03/10 02:56:52;;;;;;;26.10;15.68;;;;;;;2.07;100.00;98554.09;5012807;28;20049;-52
2023/03/10 02:59:18;;;;;;;25.40;16.00;;;;;;;2.05;100.00;98558.50;5011235;28;20033;-51
2023/03/10 03:01:43;;;;;;;29.98;16.33;;;;;;;1.64;100.00;98491.63;5011357;28;20037;-53
2023/03/10 03:04:09;;;;;;;23.98;14.82;;;;;;;2.05;100.00;98555.06;5012458;28;20034;-49
2023/03/10 03:06:35;;;;;;;24.13;14.52;;;;;;;2.05;100.00;98568.91;5012886;28;20441;-52
2023/03/10 03:09:00;;;;;;;27.58;15.55;;;;;;;1.67;100.00;98507.09;5011114;28;20508;-54
2023/03/10 03:11:26;;;;;;;25.25;15.43;;;;;;;2.07;100.00;98564.50;5012709;28;20061;-53
2023/03/10 03:13:51;;;;;;;26.13;14.82;;;;;;;2.07;100.00;98550.69;5011402;28;20058;-54
2023/03/10 03:16:17;;;;;;;25.73;13.85;;;;;;;2.06;100.00;98538.63;5011245;28;20113;-56
2023/03/10 03:18:42;;;;;;;27.00;15.35;;;;;;;2.07;100.00;98542.91;5010811;28;20095;-55
2023/03/10 03:21:11;;;;;;;28.55;14.80;;;;;;;2.09;100.00;98541.97;5011206;28;20030;-51
2023/03/10 03:23:37;;;;;;;28.48;16.27;;;;;;;2.10;100.00;98537.63;4994126;28;20057;-52
2023/03/10 03:26:04;;;;;;;26.60;15.10;;;;;;;1.94;100.00;98519.13;5012080;28;20481;-54
2023/03/10 03:28:29;;;;;;;30.38;14.88;;;;;;;2.08;100.00;98542.84;5011955;28;20030;-55
2023/03/10 03:30:55;;;;;;;27.17;15.15;;;;;;;1.80;100.00;98498.00;4994603;28;20053;-49
2023/03/10 03:33:20;;;;;;;26.92;16.20;;;;;;;1.64;100.00;98476.94;5010255;28;20125;-54
2023/03/10 03:35:46;;;;;;;26.45;14.68;;;;;;;1.68;100.00;98475.94;5011822;28;20045;-51
2023/03/10 03:38:11;;;;;;;28.23;15.70;;;;;;;2.06;100.00;98555.03;5011831;28;20037;-55
2023/03/10 03:40:37;;;;;;;28.25;15.40;;;;;;;2.02;100.00;98522.28;5011626;28;20080;-55
2023/03/10 03:43:03;;;;;;;30.42;15.05;;;;;;;2.07;100.00;98543.72;5011195;28;20026;-52
2023/03/10 03:45:30;;;;;;;30.92;15.75;;;;;;;2.07;100.00;98533.34;5011518;28;20029;-54
2023/03/10 03:47:56;;;;;;;29.38;15.35;;;;;;;1.66;100.00;98472.53;5010296;28;20037;-52
2023/03/10 03:50:22;;;;;;;25.38;14.55;;;;;;;1.97;100.00;98525.94;4998517;28;20448;-51
2023/03/10 03:52:48;;;;;;;28.25;15.57;;;;;;;2.05;100.00;98536.91;5007086;28;20137;-50
2023/03/10 03:55:15;;;;;;;28.08;15.82;;;;;;;2.05;100.00;98555.91;4990434;28;20032;-55
2023/03/10 03:57:41;;;;;;;29.45;15.18;;;;;;;1.62;100.00;98463.19;4991829;28;20493;-48
2023/03/10 04:00:11;;;;;;;24.52;14.23;;;;;;;1.66;100.00;98471.69;5007156;28;20045;-48
2023/03/10 04:02:37;;;;;;;28.73;15.48;;;;;;;1.98;100.00;98528.50;4991906;28;20034;-51
2023/03/10 04:05:03;;;;;;;25.63;13.68;;;;;;;1.87;100.00;98517.63;4990866;28;20500;-51
2023/03/10 04:07:29;;;;;;;26.80;13.73;;;;;;;1.94;100.00;98539.03;4996211;28;20049;-50
2023/03/10 04:09:54;;;;;;;21.85;12.77;;;;;;;1.77;100.00;98492.06;5011309;28;20038;-51
2023/03/10 04:12:19;;;;;;;24.05;13.20;;;;;;;2.03;100.00;98523.16;5026689;28;20038;-50
2023/03/10 04:14:45;;;;;;;24.85;13.10;;;;;;;2.02;100.00;98511.91;5011310;28;20034;-51
2023/03/10 04:17:10;;;;;;;23.63;12.95;;;;;;;1.56;100.00;98432.28;5011450;28;20042;-54
2023/03/10 04:19:35;;;;;;;23.45;12.65;;;;;;;2.03;100.00;98525.75;5011716;28;20046;-54
2023/03/10 04:22:01;;;;;;;21.95;11.93;;;;;;;1.51;100.00;98448.88;5011529;28;20119;-50
2023/03/10 04:24:26;;;;;;;23.55;12.50;;;;;;;2.02;100.00;98531.81;5026444;28;20046;-49
2023/03/10 04:26:52;;;;;;;20.40;12.07;;;;;;;1.97;100.00;98525.94;4993580;28;20366;-52
2023/03/10 04:29:17;;;;;;;22.80;12.20;;;;;;;2.05;100.00;98553.31;4990381;28;20039;-48
2023/03/10 04:31:43;;;;;;;24.38;12.48;;;;;;;2.04;100.00;98530.03;4991613;28;20042;-48
2023/03/10 04:34:08;;;;;;;18.67;11.00;;;;;;;2.03;100.00;98536.97;4992436;28;20033;-51
2023/03/10 04:36:34;;;;;;;22.13;11.93;;;;;;;2.02;100.00;98537.00;4995334;28;20592;-49
2023/03/10 04:38:59;;;;;;;21.90;11.73;;;;;;;1.57;100.00;98452.13;4994025;28;20145;-50
2023/03/10 04:41:24;;;;;;;21.75;11.52;;;;;;;2.05;100.00;98532.56;4995498;28;20038;-50
2023/03/10 04:43:50;;;;;;;22.65;10.73;;;;;;;1.92;100.00;98504.53;4994733;28;20082;-51
2023/03/10 04:46:15;;;;;;;19.73;10.65;;;;;;;1.59;100.00;98447.72;4995180;28;20061;-49
2023/03/10 04:48:41;;;;;;;21.77;11.70;;;;;;;2.02;100.00;98526.63;4995595;28;20493;-51
2023/03/10 04:51:09;;;;;;;21.45;11.45;;;;;;;1.54;100.00;98443.59;4995546;28;20039;-50
2023/03/10 04:53:35;;;;;;;21.60;11.60;;;;;;;1.54;100.00;98446.19;4996098;28;20158;-50
2023/03/10 04:56:03;;;;;;;21.83;11.75;;;;;;;1.93;100.00;98506.19;4993786;28;20034;-51
2023/03/10 04:58:28;;;;;;;25.63;12.05;;;;;;;1.64;100.00;98455.31;4992829;28;20042;-50
2023/03/10 05:00:54;;;;;;;25.00;12.27;;;;;;;1.93;100.00;98506.19;4994465;28;20037;-52
2023/03/10 05:03:19;;;;;;;23.75;12.02;;;;;;;1.98;100.00;98502.56;4994887;28;20088;-52
2023/03/10 05:05:44;;;;;;;25.20;13.02;;;;;;;2.03;100.00;98515.38;4995109;28;20038;-50
2023/03/10 05:08:10;;;;;;;27.80;13.07;;;;;;;1.97;100.00;98518.16;4994303;28;20034;-55
2023/03/10 05:10:38;;;;;;;26.15;12.10;;;;;;;1.91;100.00;98505.41;4994465;28;20038;-51
2023/03/10 05:13:04;;;;;;;29.70;13.27;;;;;;;1.89;100.00;98494.25;4994390;28;20116;-52
2023/03/10 05:15:33;;;;;;;25.73;12.00;;;;;;;1.96;100.00;98509.53;4993888;28;20482;-51
2023/03/10 05:17:58;;;;;;;24.48;13.20;;;;;;;1.63;100.00;98445.88;4994363;28;20038;-52
2023/03/10 05:20:24;;;;;;;31.42;13.48;;;;;;;1.97;100.00;98492.22;4994595;28;20035;-49
2023/03/10 05:22:49;;;;;;;29.08;13.20;;;;;;;1.57;100.00;98428.78;4994230;28;20042;-49
2023/03/10 05:25:15;;;;;;;29.08;13.43;;;;;;;1.55;100.00;98421.94;4994145;28;20542;-51
2023/03/10 05:27:40;;;;;;;27.65;13.90;;;;;;;2.02;100.00;98498.09;4993062;28;20477;-49
2023/03/10 05:30:07;;;;;;;30.10;13.30;;;;;;;2.04;100.00;98514.47;4993068;28;20041;-52
2023/03/10 05:32:34;;;;;;;28.20;12.95;;;;;;;2.02;100.00;98513.66;5012546;28;20034;-50
2023/03/10 05:34:59;;;;;;;27.55;13.23;;;;;;;1.99;100.00;98512.03;5013884;28;20033;-51
2023/03/10 05:37:24;;;;;;;26.65;12.43;;;;;;;1.54;100.00;98435.81;5013646;28;20497;-53
2023/03/10 05:39:50;;;;;;;32.30;12.75;;;;;;;1.65;100.00;98452.69;5013468;28;20042;-55
2023/03/10 05:42:15;;;;;;;28.30;13.52;;;;;;;1.97;100.00;98513.84;5013832;28;20125;-52
2023/03/10 05:44:40;;;;;;;29.08;12.00;;;;;;;1.79;100.00;98487.66;5013439;28;20041;-51
2023/03/10 05:47:06;;;;;;;25.85;11.70;;;;;;;1.96;100.00;98521.66;5012911;28;20065;-53
2023/03/10 05:49:31;;;;;;;28.65;12.52;;;;;;;1.98;100.00;98512.09;4999028;28;20505;-54
2023/03/10 05:51:58;;;;;;;29.33;12.73;;;;;;;1.96;100.00;98521.66;4994505;28;20037;-52
2023/03/10 05:54:23;;;;;;;31.13;13.40;;;;;;;1.89;100.00;98495.09;4993849;28;20071;-51
2023/03/10 05:56:49;;;;;;;34.70;14.43;;;;;;;1.89;100.00;98504.63;5008873;28;20038;-47
2023/03/10 05:59:14;;;;;;;26.50;12.20;;;;;;;1.82;100.00;98483.22;5008815;28;20034;-52
2023/03/10 06:01:40;;;;;;;31.65;12.85;;;;;;;1.54;100.00;98439.25;4992741;28;20057;-50
2023/03/10 06:04:05;;;;;;;26.45;13.30;;;;;;;1.48;100.00;98434.28;4993771;28;20058;-53
2023/03/10 06:06:31;;;;;;;27.75;13.20;;;;;;;1.96;100.00;98519.06;4998705;28;20486;-51
2023/03/10 06:08:56;;;;;;;27.52;13.55;;;;;;;1.50;100.00;98429.03;4993391;28;20092;-53
2023/03/10 06:11:22;;;;;;;33.33;13.77;;;;;;;1.96;100.00;98511.28;4992959;28;20445;-54
2023/03/10 06:13:47;;;;;;;31.40;14.07;;;;;;;1.64;100.00;98461.38;4993736;28;20045;-48
2023/03/10 06:16:12;;;;;;;30.63;14.05;;;;;;;1.55;100.00;98438.34;4993697;28;20030;-50
2023/03/10 06:18:38;;;;;;;32.13;13.25;;;;;;;1.52;100.00;98435.84;4993297;28;20042;-48
2023/03/10 06:21:05;;;;;;;32.30;13.88;;;;;;;1.68;100.00;98456.94;5008989;28;20030;-50
2023/03/10 06:23:30;;;;;;;35.38;13.35;;;;;;;1.97;100.00;98500.00;5013296;28;20108;-52
2023/03/10 06:25:58;;;;;;;32.40;13.80;;;;;;;1.63;100.00;98435.50;5012848;28;20049;-52
2023/03/10 06:28:24;;;;;;;37.30;13.90;;;;;;;1.74;100.00;98448.09;5011743;28;20065;-55
2023/03/10 06:30:56;;;;;;;32.00;12.48;;;;;;;1.59;100.00;98432.16;5012126;28;20683;-50
2023/03/10 06:33:23;;;;;;;30.33;12.32;;;;;;;2.11;100.00;98502.97;5011741;28;20174;-45
2023/03/10 06:35:48;;;;;;;29.25;12.38;;;;;;;1.66;100.00;98431.03;5028294;28;20054;-51
2023/03/10 06:38:14;;;;;;;28.77;12.48;;;;;;;2.09;100.00;98516.00;5011811;28;20044;-53
2023/03/10 06:40:39;;;;;;;37.63;13.82;;;;;;;1.73;100.00;98455.00;5013117;28;20488;-53
2023/03/10 06:43:04;;;;;;;31.08;12.38;;;;;;;1.66;100.00;98451.78;5012807;28;20042;-52
2023/03/10 06:45:30;;;;;;;31.30;13.02;;;;;;;1.72;100.00;98458.53;5028055;28;20037;-50
2023/03/10 06:47:55;;;;;;;30.17;12.38;;;;;;;2.11;100.00;98518.53;5012800;28;20046;-48
2023/03/10 06:50:20;;;;;;;34.95;12.52;;;;;;;1.62;100.00;98429.47;5012599;28;20478;-49
2023/03/10 06:52:46;;;;;;;30.10;12.13;;;;;;;2.13;100.00;98527.94;5012351;28;20034;-50
2023/03/10 06:55:12;;;;;;;26.33;11.40;;;;;;;2.14;100.00;98526.22;5011764;28;20077;-52
2023/03/10 06:57:38;;;;;;;28.85;12.40;;;;;;;2.15;100.00;98525.31;5010851;28;20030;-51
2023/03/10 07:00:06;;;;;;;25.48;10.95;;;;;;;1.92;100.00;98478.56;5010961;28;20067;-53
2023/03/10 07:02:32;;;;;;;29.30;11.48;;;;;;;2.19;100.00;98519.09;4994426;28;20460;-55
2023/03/10 07:04:57;;;;;;;26.10;11.27;;;;;;;2.23;100.00;98516.34;5012492;28;20038;-56
2023/03/10 07:07:23;;;;;;;20.25;10.25;;;;;;;2.33;100.00;98524.66;5012318;28;20315;-53
2023/03/10 07:09:48;;;;;;;22.80;10.73;;;;;;;1.94;100.00;98449.09;5012315;28;20069;-54
2023/03/10 07:12:13;;;;;;;24.58;10.80;;;;;;;2.08;100.00;98462.41;5011967;28;20042;-53
2023/03/10 07:14:38;;;;;;;24.13;10.30;;;;;;;2.39;100.00;98518.41;5001115;28;20461;-52
2023/03/10 07:17:04;;;;;;;19.88;9.90;;;;;;;2.41;100.00;98517.44;4991404;28;20046;-51
2023/03/10 07:19:29;;;;;;;24.15;10.10;;;;;;;2.38;100.00;98516.72;4992285;28;20069;-49
2023/03/10 07:21:54;;;;;;;21.50;9.80;;;;;;;2.28;100.00;98517.03;4992412;28;20042;-53
2023/03/10 07:24:20;;;;;;;22.52;10.00;;;;;;;2.30;100.00;98534.31;4992433;28;20067;-52
2023/03/10 07:26:46;;;;;;;19.40;9.52;;;;;;;2.31;100.00;98520.44;4992347;28;20034;-50
2023/03/10 07:29:11;;;;;;;22.27;9.20;;;;;;;1.97;100.00;98471.47;5007763;28;20054;-50
2023/03/10 07:31:36;;;;;;;25.98;10.18;;;;;;;1.86;100.00;98451.09;5007020;28;20122;-52
2023/03/10 07:34:02;;;;;;;20.17;9.70;;;;;;;2.24;100.00;98514.63;4992561;28;20560;-54
2023/03/10 07:36:28;;;;;;;23.27;9.80;;;;;;;2.29;100.00;98520.47;4992448;28;20034;-53
2023/03/10 07:38:54;;;;;;;24.58;10.38;;;;;;;1.86;100.00;98442.47;4992126;28;20030;-50
2023/03/10 07:41:20;;;;;;;21.08;9.73;;;;;;;2.21;100.00;98506.94;4992068;28;20127;-51
2023/03/10 07:43:45;;;;;;;19.85;9.10;;;;;;;2.33;100.00;98529.88;4992284;28;20034;-55
2023/03/10 07:46:13;;;;;;;15.68;8.32;;;;;;;2.28;100.00;98524.81;4990994;28;20109;-54
2023/03/10 07:48:39;;;;;;;18.15;8.77;;;;;;;2.30;100.00;98523.94;4991850;28;20076;-53
2023/03/10 07:51:05;;;;;;;18.98;8.80;;;;;;;2.36;100.00;98536.69;4991113;28;20501;-51
2023/03/10 07:53:37;;;;;;;15.65;8.90;;;;;;;2.42;100.00;98532.13;4992372;28;20100;-54
2023/03/10 07:56:07;;;;;;;15.43;8.20;;;;;;;2.41;100.00;98540.81;4992368;28;20579;-59
2023/03/10 07:58:32;;;;;;;16.73;8.48;;;;;;;2.44;100.00;98537.25;4989975;28;20464;-60
2023/03/10 08:00:58;;;;;;;15.88;8.07;;;;;;;2.47;100.00;98543.19;5005512;28;20058;-59
2023/03/10 08:03:25;;;;;;;16.23;7.43;;;;;;;2.33;100.00;98519.47;5006389;28;20054;-60
2023/03/10 08:05:50;;;;;;;14.02;7.72;;;;;;;2.53;100.00;98539.53;5011560;28;20122;-58
2023/03/10 08:08:16;;;;;;;14.43;7.90;;;;;;;2.41;100.00;98509.66;5010679;28;20400;-60
2023/03/10 08:10:42;;;;;;;16.55;8.02;;;;;;;2.61;100.00;98540.09;5014155;28;20435;-60
2023/03/10 08:13:07;;;;;;;13.07;7.65;;;;;;;2.57;100.00;98536.75;5014445;28;20049;-60
2023/03/10 08:15:32;;;;;;;16.58;7.85;;;;;;;2.62;100.00;98550.44;4996402;28;20042;-59
2023/03/10 08:17:58;;;;;;;16.10;7.90;;;;;;;2.12;100.00;98468.34;5013157;28;20043;-60
2023/03/10 08:20:24;;;;;;;12.55;7.28;;;;;;;2.08;100.00;98475.38;5013914;28;20034;-60
2023/03/10 08:22:51;;;;;;;14.35;7.40;;;;;;;2.05;100.00;98480.69;5010310;28;20057;-59
2023/03/10 08:25:17;;;;;;;16.05;7.43;;;;;;;2.52;100.00;98564.63;5011935;28;20556;-60
2023/03/10 08:27:42;;;;;;;10.70;6.78;;;;;;;2.06;100.00;98478.94;5011143;28;20035;-60
2023/03/10 08:30:08;;;;;;;11.13;6.38;;;;;;;1.97;100.00;98477.50;5005246;28;20037;-59
2023/03/10 08:32:33;;;;;;;11.57;6.93;;;;;;;2.41;100.00;98543.41;5001843;28;20488;-59
2023/03/10 08:34:59;;;;;;;9.38;5.80;;;;;;;1.63;100.00;98423.38;5015390;28;20026;-59
2023/03/10 08:37:24;;;;;;;11.32;6.75;;;;;;;1.99;100.00;98478.28;5013392;28;20147;-57
2023/03/10 08:39:52;;;;;;;8.93;5.47;;;;;;;2.01;100.00;98479.09;5012905;28;20461;-60
2023/03/10 08:42:17;;;;;;;8.13;5.63;;;;;;;2.27;100.00;98517.09;5000009;28;20045;-58
2023/03/10 08:44:43;;;;;;;11.32;5.78;;;;;;;2.48;100.00;98541.44;5003974;28;20042;-59
2023/03/10 08:47:08;;;;;;;8.63;5.15;;;;;;;1.99;100.00;98480.03;5026216;28;20141;-59
2023/03/10 08:49:34;;;;;;;8.85;5.32;;;;;;;2.03;100.00;98490.28;5011963;28;20420;-60
2023/03/10 08:52:00;;;;;;;9.05;5.15;;;;;;;2.35;100.00;98566.13;5014402;28;20037;-59
2023/03/10 08:54:25;;;;;;;8.25;5.10;;;;;;;1.94;100.00;98493.19;5014415;28;20058;-58
2023/03/10 08:56:51;;;;;;;10.50;5.70;;;;;;;2.41;100.00;98581.50;5011292;28;20035;-59
2023/03/10 08:59:18;;;;;;;10.05;6.20;;;;;;;2.31;100.00;98557.59;5006891;28;20042;-60
2023/03/10 09:01:43;;;;;;;7.97;5.10;;;;;;;2.38;100.00;98553.06;5011985;28;20080;-58
2023/03/10 09:04:09;;;;;;;6.82;4.47;;;;;;;2.43;100.00;98572.75;5013016;28;20437;-59
2023/03/10 09:06:34;;;;;;;6.97;4.60;;;;;;;2.00;100.00;98508.53;4994859;28;20433;-58
2023/03/10 09:09:01;;;;;;;8.25;4.88;;;;;;;2.43;100.00;98582.28;5012004;28;20175;-59
2023/03/10 09:11:31;;;;;;;9.82;4.82;;;;;;;2.10;100.00;98515.09;4996245;28;20511;-58
2023/03/10 09:13:57;;;;;;;6.97;4.88;;;;;;;2.22;100.00;98537.16;5010180;28;20088;-58
2023/03/10 09:16:23;;;;;;;6.97;4.57;;;;;;;2.57;100.00;98582.66;5012480;28;20389;-58
2023/03/10 09:18:48;;;;;;;9.55;5.07;;;;;;;2.65;100.00;98581.47;5013698;28;20077;-60
2023/03/10 09:21:15;;;;;;;7.03;4.72;;;;;;;2.30;100.00;98516.13;5028909;28;20379;-60
2023/03/10 09:23:43;;;;;;;6.32;4.30;;;;;;;2.76;100.00;98596.66;5012191;28;20497;-59
2023/03/10 09:26:08;;;;;;;5.57;4.47;;;;;;;2.33;100.00;98531.59;4994349;28;20453;-59
2023/03/10 09:28:34;;;;;;;5.22;3.90;;;;;;;2.34;100.00;98547.13;4995333;28;20065;-59
2023/03/10 09:31:00;;;;;;;5.88;4.50;;;;;;;2.75;100.00;98600.16;5011087;28;20105;-60
2023/03/10 09:33:25;;;;;;;5.97;4.35;;;;;;;2.63;100.00;98588.47;5012456;28;20034;-60
2023/03/10 09:35:50;;;;;;;5.05;4.30;;;;;;;2.54;100.00;98586.19;4995922;28;20078;-60
2023/03/10 09:38:16;;;;;;;5.03;4.32;;;;;;;2.64;100.00;98604.91;4993111;28;20039;-60
2023/03/10 09:40:45;;;;;;;6.20;3.85;;;;;;;2.30;100.00;98547.28;4991731;28;20561;-60
2023/03/10 09:43:14;;;;;;;5.78;3.80;;;;;;;2.62;100.00;98617.97;5008145;28;20034;-60
2023/03/10 09:45:50;;;;;;;5.22;3.53;;;;;;;2.05;100.00;98539.50;4992791;28;20034;-59
2023/03/10 09:48:46;;;;;;;7.00;4.72;;;;;;;2.53;100.00;98615.69;4992633;28;20117;-60
2023/03/10 09:51:20;;;;;;;5.10;3.72;;;;;;;2.44;100.00;98630.72;4998311;28;20080;-59
2023/03/10 09:54:13;;;;;;;5.18;3.72;;;;;;;2.47;100.00;98618.50;4991264;28;20532;-59
2023/03/10 09:56:39;;;;;;;5.15;3.65;;;;;;;2.43;100.00;98611.69;4992373;28;20042;-60
2023/03/10 09:59:29;;;;;;;4.13;3.70;;;;;;;2.54;100.00;98634.72;4992298;28;20038;-58
2023/03/10 10:01:55;;;;;;;7.07;4.03;;;;;;;2.57;100.00;98621.63;5008345;28;20088;-58
2023/03/10 10:04:26;;;;;;;5.60;4.07;;;;;;;2.56;100.00;98636.34;5007211;28;20343;-60
2023/03/10 10:06:51;;;;;;;5.43;4.05;;;;;;;2.25;100.00;98560.41;5011148;28;20038;-60
2023/03/10 10:09:40;;;;;;;5.80;4.10;;;;;;;2.43;100.00;98608.25;5026794;28;20032;-59
2023/03/10 10:12:13;;;;;;;4.88;4.00;;;;;;;2.58;100.00;98650.13;5012161;28;20037;-60
2023/03/10 10:14:40;;;;;;;5.32;4.20;;;;;;;2.51;100.00;98634.81;5011986;28;20370;-58
2023/03/10 10:17:24;;;;;;;4.90;4.00;;;;;;;2.50;100.00;98640.91;5025764;28;20068;-58
2023/03/10 10:19:51;;;;;;;5.30;4.18;;;;;;;2.04;100.00;98582.75;5009968;28;20030;-60
2023/03/10 10:22:26;;;;;;;5.75;4.13;;;;;;;2.56;100.00;98658.88;5026148;28;20469;-58
2023/03/10 10:25:07;;;;;;;4.68;3.45;;;;;;;2.52;100.00;98659.88;5026890;28;20495;-54
2023/03/10 10:27:32;;;;;;;4.20;3.30;;;;;;;2.40;100.00;98642.09;5011417;28;20045;-58
2023/03/10 10:29:58;;;;;;;5.13;3.58;;;;;;;2.49;100.00;98647.84;5026511;28;20037;-60
2023/03/10 10:32:23;;;;;;;4.60;3.53;;;;;;;2.14;100.00;98588.50;5006393;28;20031;-58
2023/03/10 10:34:48;;;;;;;5.07;4.03;;;;;;;2.59;100.00;98654.41;5007155;28;20441;-59
2023/03/10 10:37:34;;;;;;;5.25;3.42;;;;;;;2.12;100.00;98577.31;4991980;28;20486;-59
2023/03/10 10:39:59;;;;;;;4.05;3.17;;;;;;;1.89;100.00;98543.53;4991789;28;20500;-58
2023/03/10 10:42:27;;;;;;;4.57;3.28;;;;;;;2.46;100.00;98647.94;4991836;28;20042;-57
2023/03/10 10:44:57;;;;;;;3.75;3.30;;;;;;;2.50;100.00;98646.09;5005979;28;20121;-60
2023/03/10 10:47:45;;;;;;;4.65;3.40;;;;;;;2.49;100.00;98653.03;4990674;28;20085;-57
2023/03/10 10:50:31;;;;;;;4.30;3.10;;;;;;;2.57;100.00;98665.78;5009955;28;20038;-58
2023/03/10 10:53:12;;;;;;;3.95;2.95;;;;;;;2.60;100.00;98670.81;5011012;28;20033;-60
2023/03/10 10:55:38;;;;;;;3.85;3.20;;;;;;;2.59;100.00;98683.00;4999672;28;20347;-58
2023/03/10 10:58:06;;;;;;;3.72;3.13;;;;;;;2.10;100.00;98603.31;4991835;28;20038;-56
2023/03/10 11:00:37;;;;;;;3.85;3.20;;;;;;;2.05;100.00;98613.00;4991968;28;20129;-59
2023/03/10 11:03:22;;;;;;;;;;;;;;;2.44;100.00;98695.63;4991853;28;20456;-55
2023/03/10 11:05:47;;;;;;;4.15;3.13;;;;;;;2.48;100.00;98681.66;4991352;28;19918;-58
2023/03/10 11:08:39;;;;;;;3.30;2.40;;;;;;;2.03;100.00;98634.72;4991954;28;20561;-57
2023/03/10 11:11:28;;;;;;;4.70;2.72;;;;;;;2.52;100.00;98704.88;4990658;28;20414;-60
2023/03/10 11:14:15;;;;;;;2.60;2.40;;;;;;;2.46;100.00;98704.22;4991742;28;20018;-59
2023/03/10 11:16:40;;;;;;;3.33;2.45;;;;;;;2.43;100.00;98702.56;4991890;28;20099;-59
2023/03/10 11:19:21;;;;;;;3.47;2.70;;;;;;;2.09;100.00;98655.28;4991368;28;20125;-60
2023/03/10 11:21:50;;;;;;;4.00;2.77;;;;;;;2.47;100.00;98724.94;4991950;28;20034;-56
2023/03/10 11:24:23;;;;;;;3.15;2.40;;;;;;;1.96;100.00;98635.81;5009864;28;20037;-61